Time;durP1;ratioP1;P1;durP2;ratioP2;P2;SDS_P1;SDS_P2;PMS_P1;PMS_P2;Temp;Humidity;BMP_temperature;BMP_pressure;BME280_temperature;BME280_humidity;BME280_pressure;Samples;Min_cycle;Max_cycle;Signal;HPM_P1;HPM_P2
2021/11/19 00:01:11;;;;;;;6.53;4.17;;;-0.40;99.90;;;;;;2080639;28;20190;-62
2021/11/19 00:02:14;;;;;;;6.85;4.78;;;-0.40;99.90;;;;;;2081012;28;20226;-62
2021/11/19 00:03:16;;;;;;;7.15;4.18;;;-0.40;99.90;;;;;;2081073;28;20547;-61
2021/11/19 00:04:16;;;;;;;7.18;4.68;;;-0.40;99.90;;;;;;2081009;28;20208;-61
2021/11/19 00:05:17;;;;;;;7.20;4.10;;;-0.40;99.90;;;;;;2081126;28;20180;-62
2021/11/19 00:06:19;;;;;;;6.10;4.53;;;-0.50;99.90;;;;;;2081150;28;20184;-61
2021/11/19 00:07:20;;;;;;;6.43;4.00;;;-0.50;99.90;;;;;;2080935;28;20169;-62
2021/11/19 00:08:27;;;;;;;6.37;4.43;;;-0.50;99.90;;;;;;2081177;28;20173;-61
2021/11/19 00:09:30;;;;;;;5.93;3.90;;;-0.50;99.90;;;;;;2080170;28;20256;-62
2021/11/19 00:10:31;;;;;;;6.32;4.60;;;-0.50;99.90;;;;;;2079522;28;20665;-61
2021/11/19 00:11:35;;;;;;;5.78;4.22;;;-0.50;99.90;;;;;;2079444;28;20637;-61
2021/11/19 00:12:37;;;;;;;5.78;4.05;;;-0.50;99.90;;;;;;2080416;28;20174;-61
2021/11/19 00:13:38;;;;;;;7.57;4.13;;;-0.50;99.90;;;;;;2080287;28;20551;-62
2021/11/19 00:14:40;;;;;;;6.78;4.35;;;-0.50;99.90;;;;;;2081134;28;20196;-62
2021/11/19 00:15:41;;;;;;;6.28;4.22;;;-0.50;99.90;;;;;;2081008;28;20184;-62
2021/11/19 00:16:45;;;;;;;5.13;4.03;;;-0.50;99.90;;;;;;2080983;28;20223;-62
2021/11/19 00:17:46;;;;;;;5.85;4.05;;;-0.50;99.90;;;;;;2080433;28;20181;-61
2021/11/19 00:18:47;;;;;;;6.83;4.80;;;-0.50;99.90;;;;;;2080376;28;20208;-62
2021/11/19 00:19:47;;;;;;;7.13;4.43;;;-0.50;99.90;;;;;;2080705;28;20949;-62
2021/11/19 00:20:48;;;;;;;8.20;4.43;;;-0.50;99.90;;;;;;2080750;28;20422;-62
2021/11/19 00:21:51;;;;;;;5.85;4.00;;;-0.50;99.90;;;;;;2081073;28;20185;-62
2021/11/19 00:22:51;;;;;;;5.55;3.92;;;-0.50;99.90;;;;;;2081173;28;20228;-62
2021/11/19 00:23:53;;;;;;;6.63;4.43;;;-0.50;99.90;;;;;;2080944;28;20601;-61
2021/11/19 00:24:54;;;;;;;5.90;4.20;;;-0.50;99.90;;;;;;2081002;28;20292;-62
2021/11/19 00:25:55;;;;;;;4.83;3.67;;;-0.50;99.90;;;;;;2081127;28;20271;-63
2021/11/19 00:26:56;;;;;;;5.80;3.70;;;-0.50;99.90;;;;;;2081078;28;20186;-62
2021/11/19 00:27:57;;;;;;;5.22;3.70;;;-0.50;99.90;;;;;;2087886;28;20179;-62
2021/11/19 00:28:59;;;;;;;5.15;3.67;;;-0.50;99.90;;;;;;2089182;28;20179;-62
2021/11/19 00:30:01;;;;;;;5.85;3.92;;;-0.50;99.90;;;;;;2089066;28;20204;-62
2021/11/19 00:31:03;;;;;;;5.97;3.90;;;-0.60;99.90;;;;;;2088870;28;20240;-60
2021/11/19 00:32:04;;;;;;;6.30;4.43;;;-0.60;99.90;;;;;;2089084;28;20184;-62
2021/11/19 00:33:07;;;;;;;8.02;4.10;;;-0.60;99.90;;;;;;2089097;28;20182;-62
2021/11/19 00:34:09;;;;;;;8.23;4.88;;;-0.60;99.90;;;;;;2089031;28;20303;-62
2021/11/19 00:35:12;;;;;;;6.53;4.22;;;-0.50;99.90;;;;;;2089157;28;20599;-62
2021/11/19 00:36:18;;;;;;;9.60;5.28;;;-0.60;99.90;;;;;;2089102;28;20204;-61
2021/11/19 00:37:21;;;;;;;7.07;4.88;;;-0.60;99.90;;;;;;2089375;28;20168;-62
2021/11/19 00:38:22;;;;;;;7.35;5.15;;;-0.60;99.90;;;;;;2089257;28;20206;-62
2021/11/19 00:39:24;;;;;;;7.87;5.27;;;-0.60;99.90;;;;;;2089173;28;20550;-61
2021/11/19 00:40:38;;;;;;;7.53;4.93;;;-0.60;99.90;;;;;;2088876;28;20552;-62
2021/11/19 00:41:42;;;;;;;8.40;5.10;;;-0.60;99.90;;;;;;2089176;28;20596;-61
2021/11/19 00:42:42;;;;;;;9.30;5.28;;;-0.60;99.90;;;;;;2088462;28;20179;-62
2021/11/19 00:43:44;;;;;;;7.17;4.67;;;-0.60;99.90;;;;;;2088528;28;20667;-62
2021/11/19 00:44:45;;;;;;;6.43;4.75;;;-0.60;99.90;;;;;;2089125;28;20173;-62
2021/11/19 00:45:46;;;;;;;8.70;5.00;;;-0.50;99.90;;;;;;2088948;28;20263;-62
2021/11/19 00:46:49;;;;;;;7.57;4.63;;;-0.50;99.90;;;;;;2088197;28;20181;-62
2021/11/19 00:47:55;;;;;;;7.57;4.82;;;-0.50;99.90;;;;;;2088829;28;20192;-62
2021/11/19 00:48:55;;;;;;;7.63;4.80;;;-0.50;99.90;;;;;;2089207;28;20193;-62
2021/11/19 00:49:59;;;;;;;7.63;5.00;;;-0.50;99.90;;;;;;2089299;28;20210;-63
2021/11/19 00:51:11;;;;;;;6.57;4.50;;;-0.50;99.90;;;;;;2088606;28;20600;-63
2021/11/19 00:52:15;;;;;;;6.25;4.43;;;-0.50;99.90;;;;;;2089187;28;20193;-62
2021/11/19 00:53:16;;;;;;;7.18;4.43;;;-0.50;99.90;;;;;;2088889;28;20176;-62
2021/11/19 00:54:17;;;;;;;5.93;4.13;;;-0.50;99.90;;;;;;2089096;28;20175;-62
2021/11/19 00:55:18;;;;;;;6.80;4.47;;;-0.50;99.90;;;;;;2089083;28;20187;-62
2021/11/19 00:56:24;;;;;;;7.55;4.75;;;-0.50;99.90;;;;;;2089172;28;20180;-62
2021/11/19 00:57:24;;;;;;;7.88;4.53;;;-0.50;99.90;;;;;;2089159;28;20165;-63
2021/11/19 00:58:25;;;;;;;6.00;4.23;;;-0.50;99.90;;;;;;2088939;28;21381;-62
2021/11/19 00:59:29;;;;;;;9.07;5.28;;;-0.50;99.90;;;;;;2089739;28;20251;-62
2021/11/19 01:00:36;;;;;;;7.15;4.30;;;-0.50;99.90;;;;;;2090429;28;20238;-62
2021/11/19 01:01:46;;;;;;;6.18;4.15;;;-0.50;99.90;;;;;;2090503;28;20702;-62
2021/11/19 01:02:47;;;;;;;7.30;4.30;;;-0.50;99.90;;;;;;2090667;28;20653;-62
2021/11/19 01:03:48;;;;;;;4.73;3.73;;;-0.50;99.90;;;;;;2090614;28;20168;-62
2021/11/19 01:04:52;;;;;;;4.53;3.55;;;-0.50;99.90;;;;;;2090613;28;20219;-63
2021/11/19 01:05:54;;;;;;;7.82;4.78;;;-0.50;99.90;;;;;;2090569;28;20626;-63
2021/11/19 01:06:55;;;;;;;7.55;4.45;;;-0.50;99.90;;;;;;2090570;28;20192;-62
2021/11/19 01:07:55;;;;;;;6.63;4.30;;;-0.50;99.90;;;;;;2090694;28;20610;-62
2021/11/19 01:08:57;;;;;;;5.03;3.77;;;-0.50;99.90;;;;;;2090540;28;20184;-63
2021/11/19 01:10:04;;;;;;;4.90;3.80;;;-0.60;99.90;;;;;;2090023;28;20206;-63
2021/11/19 01:11:11;;;;;;;7.40;3.95;;;-0.60;99.90;;;;;;2089669;28;20786;-63
2021/11/19 01:12:18;;;;;;;7.57;4.63;;;-0.60;99.90;;;;;;2090514;28;20245;-62
2021/11/19 01:13:19;;;;;;;6.78;4.07;;;-0.60;99.90;;;;;;2090006;28;20188;-62
2021/11/19 01:14:56;;;;;;;5.07;3.67;;;-0.60;99.90;;;;;;2081622;28;20181;-62
2021/11/19 01:16:07;;;;;;;5.28;3.65;;;-0.70;99.90;;;;;;2090299;28;20658;-63
2021/11/19 01:17:18;;;;;;;4.82;3.50;;;-0.70;99.90;;;;;;2090500;28;20665;-62
2021/11/19 01:18:29;;;;;;;5.60;3.63;;;-0.70;99.90;;;;;;2090514;28;20164;-63
2021/11/19 01:19:48;;;;;;;4.10;2.92;;;-0.70;99.90;;;;;;2090448;28;20199;-62
2021/11/19 01:20:57;;;;;;;6.68;3.13;;;-0.70;99.90;;;;;;2090190;28;20186;-62
2021/11/19 01:22:14;;;;;;;5.25;3.72;;;-0.70;99.90;;;;;;2090435;28;20180;-62
2021/11/19 01:23:20;;;;;;;4.97;3.30;;;-0.70;99.90;;;;;;2090656;28;20196;-62
2021/11/19 01:24:22;;;;;;;5.70;3.40;;;-0.80;99.90;;;;;;2090449;28;20176;-62
2021/11/19 01:25:29;;;;;;;8.50;3.50;;;-0.70;99.90;;;;;;2090452;28;20179;-62
2021/11/19 01:26:35;;;;;;;4.07;3.20;;;-0.80;99.90;;;;;;2090565;28;20294;-62
2021/11/19 01:27:36;;;;;;;4.70;3.28;;;-0.80;99.90;;;;;;2090386;28;20175;-62
2021/11/19 01:28:40;;;;;;;5.75;3.53;;;-0.80;99.90;;;;;;2090593;28;20238;-62
2021/11/19 01:29:41;;;;;;;4.95;3.55;;;-0.80;99.90;;;;;;2090410;28;20188;-62
2021/11/19 01:30:54;;;;;;;6.05;3.53;;;-0.70;99.90;;;;;;2090170;28;20182;-62
2021/11/19 01:32:05;;;;;;;5.05;3.25;;;-0.80;99.90;;;;;;2090424;28;20707;-62
2021/11/19 01:33:06;;;;;;;4.20;3.00;;;-0.70;99.90;;;;;;2090469;28;20225;-62
2021/11/19 01:34:07;;;;;;;5.20;3.20;;;-0.80;99.90;;;;;;2090428;28;20287;-61
2021/11/19 01:35:09;;;;;;;5.57;3.35;;;-0.70;99.90;;;;;;2090420;28;20187;-62
2021/11/19 01:36:12;;;;;;;5.20;3.35;;;-0.80;99.90;;;;;;2090217;28;20201;-62
2021/11/19 01:37:14;;;;;;;5.95;2.90;;;-0.80;99.90;;;;;;2090424;28;20183;-62
2021/11/19 01:38:14;;;;;;;4.78;3.00;;;-0.70;99.90;;;;;;2090265;28;20172;-62
2021/11/19 01:39:20;;;;;;;4.90;3.20;;;-0.80;99.90;;;;;;2090271;28;20172;-61
2021/11/19 01:40:26;;;;;;;8.15;3.17;;;-0.80;99.90;;;;;;2090259;28;20704;-62
2021/11/19 01:41:33;;;;;;;7.03;3.33;;;-0.80;99.90;;;;;;2090176;28;20222;-62
2021/11/19 01:42:40;;;;;;;6.10;3.80;;;-0.80;99.90;;;;;;2090453;28;20176;-62
2021/11/19 01:43:43;;;;;;;7.60;4.13;;;-0.80;99.90;;;;;;2090224;28;20200;-62
2021/11/19 01:44:56;;;;;;;6.18;3.22;;;-0.80;99.90;;;;;;2090268;28;20259;-63
2021/11/19 01:46:02;;;;;;;5.55;3.35;;;-0.80;99.90;;;;;;2090284;28;20190;-63
2021/11/19 01:47:10;;;;;;;4.97;3.33;;;-0.80;99.90;;;;;;2090087;28;20661;-62
2021/11/19 01:48:16;;;;;;;3.75;3.00;;;-0.90;99.90;;;;;;2090354;28;20186;-62
2021/11/19 01:49:17;;;;;;;5.13;3.35;;;-0.80;99.90;;;;;;2090182;28;20178;-62
2021/11/19 01:50:31;;;;;;;5.22;3.08;;;-0.80;99.90;;;;;;2089546;28;20171;-62
2021/11/19 01:52:14;;;;;;;4.22;3.10;;;-0.80;99.90;;;;;;2089708;28;20198;-61
2021/11/19 01:53:29;;;;;;;6.63;3.85;;;-0.80;99.90;;;;;;2081854;28;20191;-62
2021/11/19 01:54:37;;;;;;;4.40;3.08;;;-0.70;99.90;;;;;;2089529;28;20175;-61
2021/11/19 01:55:55;;;;;;;5.80;3.33;;;-0.70;99.90;;;;;;2074174;28;20224;-62
2021/11/19 01:57:04;;;;;;;6.35;3.17;;;-0.70;99.90;;;;;;2078137;28;20556;-62
2021/11/19 01:58:14;;;;;;;5.45;3.40;;;-0.70;99.90;;;;;;2082278;28;20259;-62
2021/11/19 01:59:17;;;;;;;5.50;3.35;;;-0.70;99.90;;;;;;2089688;28;20168;-63
2021/11/19 02:00:27;;;;;;;7.18;3.53;;;-0.70;99.90;;;;;;2090128;28;20163;-62
2021/11/19 02:01:37;;;;;;;6.00;3.85;;;-0.70;99.90;;;;;;2090164;28;20203;-62
2021/11/19 02:02:42;;;;;;;6.07;3.65;;;-0.70;99.90;;;;;;2090020;28;20168;-62
2021/11/19 02:03:48;;;;;;;7.57;3.55;;;-0.70;99.90;;;;;;2090219;28;20225;-62
2021/11/19 02:04:55;;;;;;;5.90;3.88;;;-0.70;99.90;;;;;;2089722;28;20242;-62
2021/11/19 02:06:29;;;;;;;6.00;3.72;;;-0.70;99.90;;;;;;2089562;28;20188;-62
2021/11/19 02:07:34;;;;;;;3.90;3.17;;;-0.70;99.90;;;;;;2085555;28;20218;-62
2021/11/19 02:08:39;;;;;;;5.30;3.28;;;-0.70;99.90;;;;;;2081860;28;20191;-62
2021/11/19 02:09:51;;;;;;;7.20;3.85;;;-0.70;99.90;;;;;;2081652;28;20188;-62
2021/11/19 02:11:15;;;;;;;5.15;3.42;;;-0.70;99.90;;;;;;2088754;28;20186;-62
2021/11/19 02:13:05;;;;;;;6.20;3.45;;;-0.70;99.90;;;;;;2090193;28;20176;-62
2021/11/19 02:14:58;;;;;;;5.38;3.63;;;-0.70;99.90;;;;;;2090203;28;20265;-62
2021/11/19 02:16:05;;;;;;;3.72;2.95;;;-0.70;99.90;;;;;;2089506;28;20247;-62
2021/11/19 02:17:08;;;;;;;5.53;3.25;;;-0.70;99.90;;;;;;2082183;28;20230;-61
2021/11/19 02:18:33;;;;;;;5.13;3.60;;;-0.80;99.90;;;;;;2081349;28;20197;-62
2021/11/19 02:19:40;;;;;;;5.47;3.10;;;-0.80;99.90;;;;;;2089489;28;20338;-62
2021/11/19 02:20:47;;;;;;;3.72;2.85;;;-0.80;99.90;;;;;;2089237;28;20642;-62
2021/11/19 02:22:10;;;;;;;4.82;3.55;;;-0.80;99.90;;;;;;2081857;28;20661;-62
2021/11/19 02:23:23;;;;;;;6.57;3.22;;;-0.80;99.90;;;;;;2089801;28;20190;-61
2021/11/19 02:24:47;;;;;;;3.53;2.95;;;-0.80;99.90;;;;;;2089359;28;20364;-62
2021/11/19 02:25:55;;;;;;;4.43;3.28;;;-0.80;99.90;;;;;;2089652;28;20651;-62
2021/11/19 02:27:08;;;;;;;7.40;3.22;;;-0.80;99.90;;;;;;2089286;28;20249;-62
2021/11/19 02:28:17;;;;;;;6.70;2.83;;;-0.80;99.90;;;;;;2082883;28;20674;-62
2021/11/19 02:29:19;;;;;;;4.90;2.90;;;-0.80;99.90;;;;;;2087659;28;20184;-62
2021/11/19 02:30:33;;;;;;;6.35;3.08;;;-0.80;99.90;;;;;;2089920;28;20179;-62
2021/11/19 02:31:48;;;;;;;5.10;3.35;;;-0.80;99.90;;;;;;2089769;28;20226;-62
2021/11/19 02:32:57;;;;;;;5.20;2.88;;;-0.80;99.90;;;;;;2089889;28;20187;-62
2021/11/19 02:34:03;;;;;;;4.97;3.40;;;-0.80;99.90;;;;;;2089927;28;20211;-62
2021/11/19 02:35:09;;;;;;;3.85;2.95;;;-0.80;99.90;;;;;;2089762;28;20181;-62
2021/11/19 02:36:44;;;;;;;4.93;3.20;;;-0.80;99.90;;;;;;2090091;28;20246;-62
2021/11/19 02:37:52;;;;;;;5.43;3.47;;;-0.80;99.90;;;;;;2089864;28;20184;-61
2021/11/19 02:39:03;;;;;;;5.65;3.50;;;-0.80;99.90;;;;;;2089741;28;20855;-62
2021/11/19 02:40:13;;;;;;;6.38;3.35;;;-0.80;99.90;;;;;;2089756;28;20179;-61
2021/11/19 02:41:18;;;;;;;4.65;3.30;;;-0.80;99.90;;;;;;2089749;28;20272;-61
2021/11/19 02:42:29;;;;;;;4.88;3.30;;;-0.80;99.90;;;;;;2089971;28;20771;-62
2021/11/19 02:43:46;;;;;;;5.57;3.40;;;-0.80;99.90;;;;;;2089835;28;20645;-61
2021/11/19 02:44:49;;;;;;;6.07;3.05;;;-0.80;99.90;;;;;;2089928;28;20266;-62
2021/11/19 02:45:53;;;;;;;4.43;3.40;;;-0.80;99.90;;;;;;2089586;28;20179;-62
2021/11/19 02:46:58;;;;;;;5.63;3.33;;;-0.80;99.90;;;;;;2089968;28;20363;-62
2021/11/19 02:48:00;;;;;;;4.85;2.97;;;-0.80;99.90;;;;;;2089534;28;20235;-62
2021/11/19 02:49:00;;;;;;;5.35;3.22;;;-0.80;99.90;;;;;;2081216;28;20192;-62
2021/11/19 02:50:04;;;;;;;5.13;3.20;;;-0.70;99.90;;;;;;2089462;28;20183;-62
2021/11/19 02:51:09;;;;;;;4.50;3.00;;;-0.70;99.90;;;;;;2088822;28;20207;-62
2021/11/19 02:52:26;;;;;;;5.00;3.35;;;-0.70;99.90;;;;;;2089032;28;20176;-63
2021/11/19 02:53:28;;;;;;;4.35;2.92;;;-0.70;99.90;;;;;;2088852;28;20198;-61
2021/11/19 02:54:32;;;;;;;4.50;2.97;;;-0.70;99.90;;;;;;2089243;28;20980;-61
2021/11/19 02:55:40;;;;;;;4.13;2.92;;;-0.70;99.90;;;;;;2089242;28;20278;-62
2021/11/19 02:56:42;;;;;;;5.00;2.95;;;-0.70;99.90;;;;;;2089349;28;20281;-62
2021/11/19 02:57:43;;;;;;;5.10;2.72;;;-0.70;99.90;;;;;;2089203;28;20225;-62
2021/11/19 02:58:53;;;;;;;4.60;2.60;;;-0.70;99.90;;;;;;2089871;28;20232;-61
2021/11/19 02:59:56;;;;;;;5.45;2.72;;;-0.70;99.90;;;;;;2089681;28;20207;-62
2021/11/19 03:01:23;;;;;;;4.40;2.85;;;-0.70;99.90;;;;;;2089529;28;20226;-62
2021/11/19 03:02:30;;;;;;;3.13;2.72;;;-0.70;99.90;;;;;;2089537;28;20221;-62
2021/11/19 03:03:32;;;;;;;4.65;2.70;;;-0.70;99.90;;;;;;2089813;28;20222;-62
2021/11/19 03:04:42;;;;;;;3.55;2.50;;;-0.70;99.90;;;;;;2089708;28;20473;-62
2021/11/19 03:05:43;;;;;;;5.25;2.65;;;-0.70;99.90;;;;;;2089806;28;20482;-62
2021/11/19 03:06:48;;;;;;;3.77;2.70;;;-0.70;99.90;;;;;;2089765;28;20667;-62
2021/11/19 03:07:49;;;;;;;4.45;2.80;;;-0.80;99.90;;;;;;2089513;28;20188;-62
2021/11/19 03:08:50;;;;;;;5.03;2.83;;;-0.80;99.90;;;;;;2089600;28;20568;-62
2021/11/19 03:10:02;;;;;;;4.33;2.33;;;-0.80;99.90;;;;;;2087795;28;20192;-62
2021/11/19 03:11:04;;;;;;;5.32;2.90;;;-0.80;99.90;;;;;;2081339;28;20187;-62
2021/11/19 03:12:09;;;;;;;3.80;2.33;;;-0.80;99.90;;;;;;2089558;28;20240;-63
2021/11/19 03:13:11;;;;;;;4.75;2.88;;;-0.80;99.90;;;;;;2089593;28;20192;-62
2021/11/19 03:14:15;;;;;;;3.00;2.22;;;-0.80;99.90;;;;;;2089471;28;20204;-62
2021/11/19 03:15:21;;;;;;;4.28;2.40;;;-0.80;99.90;;;;;;2089794;28;20179;-62
2021/11/19 03:16:22;;;;;;;4.35;2.30;;;-0.80;99.90;;;;;;2089581;28;20202;-62
2021/11/19 03:17:26;;;;;;;3.95;2.15;;;-0.90;99.90;;;;;;2089734;28;20184;-62
2021/11/19 03:18:29;;;;;;;3.05;2.25;;;-0.80;99.90;;;;;;2089517;28;20184;-62
2021/11/19 03:19:29;;;;;;;4.18;2.13;;;-0.90;99.90;;;;;;2089580;28;20182;-62
2021/11/19 03:20:31;;;;;;;6.20;2.20;;;-0.90;99.90;;;;;;2089349;28;20609;-62
2021/11/19 03:21:34;;;;;;;4.78;2.40;;;-0.90;99.90;;;;;;2089470;28;20199;-62
2021/11/19 03:22:35;;;;;;;5.03;2.55;;;-0.90;99.90;;;;;;2089430;28;20190;-62
2021/11/19 03:23:36;;;;;;;4.80;2.30;;;-0.90;99.90;;;;;;2089408;28;20180;-62
2021/11/19 03:24:38;;;;;;;3.03;2.10;;;-0.90;99.90;;;;;;2089560;28;20184;-62
2021/11/19 03:25:41;;;;;;;4.88;2.10;;;-0.90;99.90;;;;;;2089563;28;20193;-62
2021/11/19 03:26:43;;;;;;;3.95;2.35;;;-0.90;99.90;;;;;;2089429;28;20594;-61
2021/11/19 03:27:46;;;;;;;2.65;2.00;;;-1.00;99.90;;;;;;2089517;28;20185;-62
2021/11/19 03:28:47;;;;;;;2.63;2.08;;;-0.90;99.90;;;;;;2089417;28;20188;-62
2021/11/19 03:29:48;;;;;;;2.93;2.00;;;-0.90;99.90;;;;;;2089624;28;20546;-62
2021/11/19 03:30:53;;;;;;;3.28;2.20;;;-0.90;99.90;;;;;;2089114;28;20199;-61
2021/11/19 03:31:54;;;;;;;3.47;2.10;;;-0.90;99.90;;;;;;2089769;28;20172;-62
2021/11/19 03:32:55;;;;;;;5.07;2.13;;;-0.90;99.90;;;;;;2088878;28;20164;-61
2021/11/19 03:33:56;;;;;;;4.20;2.07;;;-0.90;99.90;;;;;;2088762;28;20234;-63
2021/11/19 03:34:58;;;;;;;5.20;2.13;;;-0.90;99.90;;;;;;2089607;28;20584;-62
2021/11/19 03:35:59;;;;;;;2.45;1.98;;;-0.90;99.90;;;;;;2089636;28;20677;-63
2021/11/19 03:37:00;;;;;;;2.72;1.98;;;-0.90;99.90;;;;;;2089766;28;20171;-63
2021/11/19 03:38:01;;;;;;;3.37;2.10;;;-0.90;99.90;;;;;;2089768;28;20188;-63
2021/11/19 03:39:04;;;;;;;1.92;1.73;;;-0.90;99.90;;;;;;2089347;28;20545;-63
2021/11/19 03:40:06;;;;;;;3.58;1.85;;;-0.90;99.90;;;;;;2089526;28;20715;-61
2021/11/19 03:41:09;;;;;;;2.78;1.80;;;-0.90;99.90;;;;;;2089208;28;20617;-62
2021/11/19 03:42:12;;;;;;;3.70;2.15;;;-0.90;99.90;;;;;;2089548;28;20303;-62
2021/11/19 03:43:20;;;;;;;2.97;1.75;;;-0.90;99.90;;;;;;2089453;28;20218;-63
2021/11/19 03:44:49;;;;;;;1.90;1.60;;;-0.90;99.90;;;;;;2089566;28;20665;-62
2021/11/19 03:46:01;;;;;;;2.95;2.05;;;-0.90;99.90;;;;;;2089725;28;20182;-63
2021/11/19 03:47:08;;;;;;;2.67;1.90;;;-1.00;99.90;;;;;;2089557;28;20178;-63
2021/11/19 03:48:09;;;;;;;5.32;1.90;;;-1.00;99.90;;;;;;2089581;28;20177;-63
2021/11/19 03:49:11;;;;;;;2.50;1.83;;;-1.00;99.90;;;;;;2089448;28;20548;-62
2021/11/19 03:50:22;;;;;;;2.65;1.85;;;-1.00;99.90;;;;;;2089605;28;20265;-63
2021/11/19 03:51:32;;;;;;;2.40;1.67;;;-1.00;99.90;;;;;;2096993;28;20216;-62
2021/11/19 03:52:39;;;;;;;3.55;1.75;;;-1.00;99.90;;;;;;2096099;28;20258;-63
2021/11/19 03:53:40;;;;;;;2.80;1.90;;;-1.00;99.90;;;;;;2088859;28;20204;-63
2021/11/19 03:54:44;;;;;;;3.03;1.95;;;-1.00;99.90;;;;;;2088900;28;20188;-62
2021/11/19 03:55:49;;;;;;;1.95;1.60;;;-1.00;99.90;;;;;;2089380;28;20202;-62
2021/11/19 03:56:52;;;;;;;3.00;1.70;;;-1.00;99.90;;;;;;2089601;28;20182;-62
2021/11/19 03:57:52;;;;;;;3.05;2.13;;;-0.90;99.90;;;;;;2089452;28;20172;-63
2021/11/19 03:58:53;;;;;;;3.07;1.93;;;-1.00;99.90;;;;;;2089651;28;20168;-62
2021/11/19 03:59:56;;;;;;;2.97;1.70;;;-1.00;99.90;;;;;;2089535;28;20251;-62
2021/11/19 04:01:03;;;;;;;4.57;1.77;;;-1.00;99.90;;;;;;2089179;28;20172;-62
2021/11/19 04:02:06;;;;;;;3.75;1.90;;;-0.90;99.90;;;;;;2089627;28;20177;-62
2021/11/19 04:03:08;;;;;;;3.53;1.83;;;-0.90;99.90;;;;;;2089611;28;20700;-62
2021/11/19 04:04:15;;;;;;;2.05;1.58;;;-0.90;99.90;;;;;;2089468;28;20262;-62
2021/11/19 04:05:16;;;;;;;1.88;1.45;;;-0.90;99.90;;;;;;2089605;28;20173;-62
2021/11/19 04:06:20;;;;;;;2.28;2.00;;;-0.90;99.90;;;;;;2089191;28;20200;-62
2021/11/19 04:07:21;;;;;;;2.85;1.85;;;-0.90;99.90;;;;;;2089406;28;20209;-62
2021/11/19 04:08:22;;;;;;;3.08;1.88;;;-0.90;99.90;;;;;;2089343;28;20188;-62
2021/11/19 04:09:24;;;;;;;2.40;2.08;;;-0.90;99.90;;;;;;2089437;28;20191;-62
2021/11/19 04:10:25;;;;;;;1.67;1.40;;;-0.90;99.90;;;;;;2089229;28;20632;-62
2021/11/19 04:11:27;;;;;;;2.63;1.70;;;-1.00;99.90;;;;;;2089240;28;20207;-62
2021/11/19 04:12:28;;;;;;;3.05;1.50;;;-1.00;99.90;;;;;;2089599;28;20237;-62
2021/11/19 04:13:29;;;;;;;2.00;1.60;;;-1.00;99.90;;;;;;2089448;28;20677;-60
2021/11/19 04:14:30;;;;;;;2.47;1.60;;;-0.90;99.90;;;;;;2089377;28;20191;-62
2021/11/19 04:15:36;;;;;;;3.73;1.70;;;-0.90;99.90;;;;;;2089479;28;20217;-62
2021/11/19 04:16:44;;;;;;;2.53;1.75;;;-0.90;99.90;;;;;;2089375;28;20182;-63
2021/11/19 04:17:45;;;;;;;2.80;1.77;;;-1.00;99.90;;;;;;2089491;28;20188;-62
2021/11/19 04:18:47;;;;;;;2.38;1.85;;;-1.00;99.90;;;;;;2089342;28;20531;-62
2021/11/19 04:19:48;;;;;;;2.05;1.50;;;-1.00;99.90;;;;;;2089286;28;20658;-62
2021/11/19 04:20:52;;;;;;;2.95;1.80;;;-0.90;99.90;;;;;;2089119;28;20168;-62
2021/11/19 04:21:56;;;;;;;3.13;1.70;;;-1.00;99.90;;;;;;2089382;28;20180;-62
2021/11/19 04:22:58;;;;;;;4.28;1.63;;;-1.00;99.90;;;;;;2089313;28;20207;-62
2021/11/19 04:23:59;;;;;;;3.00;1.88;;;-1.00;99.90;;;;;;2089441;28;20190;-62
2021/11/19 04:25:04;;;;;;;3.70;1.63;;;-1.00;99.90;;;;;;2089420;28;20183;-62
2021/11/19 04:26:08;;;;;;;2.35;1.90;;;-1.00;99.90;;;;;;2089354;28;20560;-62
2021/11/19 04:27:10;;;;;;;2.15;1.60;;;-1.00;99.90;;;;;;2089319;28;20196;-62
2021/11/19 04:28:12;;;;;;;2.20;1.65;;;-0.90;99.90;;;;;;2088703;28;20191;-61
2021/11/19 04:29:13;;;;;;;2.42;1.70;;;-0.90;99.90;;;;;;2088585;28;20229;-62
2021/11/19 04:30:26;;;;;;;3.00;1.50;;;-0.90;99.90;;;;;;2089408;28;20173;-62
2021/11/19 04:31:29;;;;;;;3.33;1.85;;;-0.90;99.90;;;;;;2089265;28;20212;-62
2021/11/19 04:32:30;;;;;;;2.47;1.75;;;-0.90;99.90;;;;;;2089375;28;20188;-62
2021/11/19 04:33:31;;;;;;;2.47;1.53;;;-1.00;99.90;;;;;;2089140;28;20770;-62
2021/11/19 04:34:32;;;;;;;4.35;1.95;;;-0.90;99.90;;;;;;2090326;28;20180;-62
2021/11/19 04:35:33;;;;;;;4.73;1.83;;;-0.90;99.90;;;;;;2090961;28;20554;-62
2021/11/19 04:36:36;;;;;;;3.03;2.10;;;-0.90;99.90;;;;;;2091075;28;20191;-62
2021/11/19 04:37:37;;;;;;;5.43;1.80;;;-0.90;99.90;;;;;;2090762;28;20180;-63
2021/11/19 04:38:38;;;;;;;2.95;1.80;;;-0.90;99.90;;;;;;2088927;28;20186;-63
2021/11/19 04:39:38;;;;;;;2.88;1.60;;;-0.90;99.90;;;;;;2084461;28;20563;-63
2021/11/19 04:40:40;;;;;;;2.40;1.67;;;-0.90;99.90;;;;;;2082439;28;20212;-62
2021/11/19 04:41:41;;;;;;;3.45;3.03;;;-0.90;99.90;;;;;;2082468;28;20200;-64
2021/11/19 04:42:42;;;;;;;4.15;2.90;;;-0.90;99.90;;;;;;2082648;28;20741;-63
2021/11/19 04:43:44;;;;;;;6.53;4.78;;;-0.90;99.90;;;;;;2082546;28;20192;-63
2021/11/19 04:44:45;;;;;;;4.07;2.58;;;-0.80;99.90;;;;;;2082737;28;20185;-63
2021/11/19 04:45:47;;;;;;;6.20;3.58;;;-0.80;99.90;;;;;;2082623;28;20180;-63
2021/11/19 04:46:48;;;;;;;5.75;4.35;;;-0.80;99.90;;;;;;2085314;28;20190;-61
2021/11/19 04:47:49;;;;;;;8.57;5.32;;;-0.80;99.90;;;;;;2091208;28;20223;-62
2021/11/19 04:48:51;;;;;;;8.70;5.78;;;-0.80;99.90;;;;;;2091082;28;20675;-63
2021/11/19 04:49:51;;;;;;;7.68;5.32;;;-0.80;99.90;;;;;;2091077;28;20680;-63
2021/11/19 04:50:53;;;;;;;6.50;4.70;;;-0.80;99.90;;;;;;2090736;28;20190;-63
2021/11/19 04:51:54;;;;;;;7.15;4.75;;;-0.80;99.90;;;;;;2090894;28;20725;-63
2021/11/19 04:52:55;;;;;;;7.25;5.00;;;-0.80;99.90;;;;;;2090481;28;20180;-63
2021/11/19 04:53:56;;;;;;;5.85;4.60;;;-0.80;99.90;;;;;;2090225;28;20287;-63
2021/11/19 04:54:57;;;;;;;6.07;4.15;;;-0.80;99.90;;;;;;2090910;28;20608;-63
2021/11/19 04:55:59;;;;;;;5.33;2.87;;;-0.80;99.90;;;;;;2090294;28;20275;-63
2021/11/19 04:57:01;;;;;;;4.35;2.70;;;-0.80;99.90;;;;;;2090236;28;20571;-63
2021/11/19 04:58:02;;;;;;;3.17;2.38;;;-0.80;99.90;;;;;;2091068;28;20172;-62
2021/11/19 04:59:04;;;;;;;2.95;2.50;;;-0.80;99.90;;;;;;2090980;28;20200;-63
2021/11/19 05:00:22;;;;;;;2.50;2.05;;;-0.80;99.90;;;;;;2090898;28;20188;-62
2021/11/19 05:01:28;;;;;;;4.25;1.95;;;-0.80;99.90;;;;;;2090731;28;20207;-62
2021/11/19 05:02:29;;;;;;;3.33;2.08;;;-0.80;99.90;;;;;;2090578;28;20172;-62
2021/11/19 05:03:30;;;;;;;6.07;2.63;;;-0.80;99.90;;;;;;2090613;28;20259;-62
2021/11/19 05:04:31;;;;;;;4.30;2.60;;;-0.90;99.90;;;;;;2090623;28;20187;-62
2021/11/19 05:05:32;;;;;;;2.73;2.10;;;-0.90;99.90;;;;;;2090562;28;20176;-62
2021/11/19 05:06:34;;;;;;;4.38;2.28;;;-0.90;99.90;;;;;;2090529;28;20230;-62
2021/11/19 05:07:35;;;;;;;5.63;2.33;;;-0.90;99.90;;;;;;2090663;28;20779;-62
2021/11/19 05:08:36;;;;;;;3.22;2.63;;;-0.80;99.90;;;;;;2090623;28;20191;-62
2021/11/19 05:09:37;;;;;;;4.38;2.40;;;-0.90;99.90;;;;;;2090598;28;20204;-62
2021/11/19 05:10:41;;;;;;;3.27;2.50;;;-0.90;99.90;;;;;;2090338;28;21035;-60
2021/11/19 05:11:52;;;;;;;2.75;2.20;;;-0.90;99.90;;;;;;2090544;28;20197;-62
2021/11/19 05:12:57;;;;;;;3.75;2.03;;;-0.90;99.90;;;;;;2090670;28;20191;-62
2021/11/19 05:13:59;;;;;;;2.60;2.25;;;-0.90;99.90;;;;;;2090554;28;20214;-62
2021/11/19 05:15:00;;;;;;;2.70;2.00;;;-0.90;99.90;;;;;;2090590;28;20547;-63
2021/11/19 05:16:05;;;;;;;3.33;2.13;;;-0.90;99.90;;;;;;2090666;28;20176;-62
2021/11/19 05:17:08;;;;;;;2.72;2.03;;;-0.80;99.90;;;;;;2090662;28;20188;-62
2021/11/19 05:18:09;;;;;;;2.90;2.05;;;-0.80;99.90;;;;;;2090629;28;20671;-62
2021/11/19 05:19:10;;;;;;;2.72;2.13;;;-0.80;99.90;;;;;;2090528;28;20215;-62
2021/11/19 05:20:15;;;;;;;3.50;2.38;;;-0.80;99.90;;;;;;2090492;28;20187;-62
2021/11/19 05:21:19;;;;;;;2.88;1.80;;;-0.80;99.90;;;;;;2090067;28;20199;-60
2021/11/19 05:22:20;;;;;;;3.55;2.00;;;-0.80;99.90;;;;;;2090651;28;20202;-62
2021/11/19 05:23:22;;;;;;;6.75;1.90;;;-0.80;99.90;;;;;;2090505;28;20637;-62
2021/11/19 05:24:23;;;;;;;1.92;1.65;;;-0.80;99.90;;;;;;2089946;28;20195;-62
2021/11/19 05:25:30;;;;;;;2.28;1.40;;;-0.80;99.90;;;;;;2089860;28;20180;-62
2021/11/19 05:26:30;;;;;;;2.38;1.45;;;-0.80;99.90;;;;;;2090560;28;20251;-61
2021/11/19 05:27:32;;;;;;;2.33;1.70;;;-0.80;99.90;;;;;;2090463;28;20685;-62
2021/11/19 05:28:34;;;;;;;2.95;1.60;;;-0.70;99.90;;;;;;2090587;28;20200;-62
2021/11/19 05:29:35;;;;;;;2.50;1.40;;;-0.70;99.90;;;;;;2090400;28;20181;-61
2021/11/19 05:30:38;;;;;;;2.20;1.27;;;-0.70;99.90;;;;;;2090256;28;20188;-62
2021/11/19 05:31:40;;;;;;;3.10;1.50;;;-0.70;99.90;;;;;;2090203;28;20251;-62
2021/11/19 05:32:41;;;;;;;3.72;1.48;;;-0.70;99.90;;;;;;2090570;28;20192;-61
2021/11/19 05:33:42;;;;;;;4.72;1.20;;;-0.70;99.90;;;;;;2090266;28;20212;-62
2021/11/19 05:34:43;;;;;;;1.30;1.20;;;-0.70;99.90;;;;;;2090506;28;20195;-62
2021/11/19 05:35:45;;;;;;;1.40;1.17;;;-0.70;99.90;;;;;;2090346;28;20180;-62
2021/11/19 05:36:47;;;;;;;2.30;1.38;;;-0.70;99.90;;;;;;2090389;28;20181;-60
2021/11/19 05:37:48;;;;;;;1.85;1.27;;;-0.70;99.90;;;;;;2089713;28;20184;-61
2021/11/19 05:38:49;;;;;;;1.83;1.20;;;-0.70;99.90;;;;;;2089737;28;20198;-60
2021/11/19 05:39:50;;;;;;;1.75;1.17;;;-0.70;99.90;;;;;;2090505;28;20192;-62